»·PEaware :: N9572V KOTH-KBFI

N9572V :: KOTH-KBFI

FLIGHT INFORMATION

Flight Status: Arrived
Operator: Privately registered:
United States
More flights under this callsign
Pilot: Aj D. (17319)
Aircraft: CESSNA 172 SKYHAWK
(C172)
More flights by this aircraft type
Origin: KOTH North Bend Mun
United States
Destination: KBFI Boeing Field/King Co Intl
United States
More flights between these airports :: More routes between these airports
Route: +RNT
File this flight plan on PilotEdge
Remarks:
Altitude:
(Current/Filed)
7,500ft
Speed:
(Current/Filed)
120kts
Departed: 06-Mar-18 04:49 PM
Arrived: 06-Mar-18 07:13 PM
Distance/Time
Traveled:
261nm/2:24
Distance/Time
To Go:
Arrived

Flight Plot

Page will automatically refresh every two minutes.

Flight plan parsing failed; only flown route is shown


Map Options




Map Legend


Flown Route
Filed Route
Departure Airport
Arrival Airport
Navaid (VOR, NDB)
Fix

Horizontal Profiles

Position Reports

Time Latitude Longitude Heading Altitude Ground
Speed
06-Mar-18 16:44 43.414997 -124.245496 147 21ft 0kts
06-Mar-18 16:45 43.414997 -124.245496 147 21ft 0kts
06-Mar-18 16:46 43.414997 -124.245496 147 21ft 0kts
06-Mar-18 16:47 43.414997 -124.245496 147 21ft 0kts
06-Mar-18 16:48 43.414997 -124.245496 147 21ft 0kts
06-Mar-18 16:49 43.414997 -124.245496 147 21ft 0kts
06-Mar-18 16:50 43.414997 -124.245496 147 21ft 0kts
06-Mar-18 16:51 43.414991 -124.245491 146 21ft 0kts
06-Mar-18 16:52 43.415026 -124.244731 62 21ft 8kts
06-Mar-18 16:53 43.412621 -124.241893 150 21ft 19kts
06-Mar-18 16:54 43.411471 -124.240816 107 21ft 0kts
06-Mar-18 16:55 43.411467 -124.240675 82 21ft 5kts
06-Mar-18 16:56 43.413469 -124.241006 328 21ft 46kts
06-Mar-18 16:57 43.427224 -124.235045 32 737ft 70kts
06-Mar-18 16:58 43.445084 -124.225500 14 1520ft 68kts
06-Mar-18 16:59 43.464338 -124.216158 13 2183ft 79kts
06-Mar-18 17:00 43.485417 -124.207976 18 2871ft 81kts
06-Mar-18 17:01 43.506589 -124.198253 9 3526ft 81kts
06-Mar-18 17:02 43.528002 -124.188313 16 4164ft 82kts
06-Mar-18 17:03 43.548933 -124.176747 14 4751ft 84kts
06-Mar-18 17:04 43.570794 -124.165504 11 5325ft 84kts
06-Mar-18 17:05 43.592822 -124.152868 8 5845ft 87kts
06-Mar-18 17:06 43.616093 -124.143407 10 6355ft 89kts
06-Mar-18 17:07 43.639030 -124.132276 9 6865ft 88kts
06-Mar-18 17:08 43.662815 -124.121196 9 7320ft 91kts
06-Mar-18 17:09 43.689060 -124.110797 8 7512ft 112kts
06-Mar-18 17:10 43.720472 -124.097466 11 7487ft 121kts
06-Mar-18 17:11 43.752343 -124.082806 12 7486ft 121kts
06-Mar-18 17:12 43.784159 -124.067722 12 7486ft 121kts
06-Mar-18 17:13 43.816059 -124.052786 12 7486ft 121kts
06-Mar-18 17:14 43.847947 -124.037892 12 7487ft 121kts
06-Mar-18 17:15 43.879676 -124.023071 12 7494ft 119kts
06-Mar-18 17:16 43.910913 -124.008471 12 7501ft 118kts
06-Mar-18 17:17 43.941692 -123.994071 12 7508ft 116kts
06-Mar-18 17:18 43.972187 -123.979788 12 7515ft 115kts
06-Mar-18 17:19 44.002291 -123.965676 13 7522ft 113kts
06-Mar-18 17:20 44.032154 -123.951650 13 7522ft 113kts
06-Mar-18 17:21 44.062284 -123.937718 18 7404ft 129kts
06-Mar-18 17:22 44.087091 -123.925972 23 7450ft 123kts
06-Mar-18 17:23 44.119688 -123.910492 22 7495ft 127kts
06-Mar-18 17:24 44.153437 -123.894554 22 7495ft 128kts
06-Mar-18 17:25 44.181543 -123.881284 22 7494ft 128kts
06-Mar-18 17:26 44.215205 -123.865378 22 7495ft 128kts
06-Mar-18 17:27 44.254582 -123.846750 22 7494ft 128kts
06-Mar-18 17:28 44.288241 -123.830809 22 7502ft 127kts
06-Mar-18 17:29 44.321847 -123.814870 22 7515ft 127kts
06-Mar-18 17:30 44.355396 -123.798942 22 7529ft 127kts
06-Mar-18 17:31 44.383419 -123.785622 22 7541ft 127kts
06-Mar-18 17:32 44.415873 -123.769946 13 7556ft 118kts
06-Mar-18 17:33 44.446305 -123.755631 12 7568ft 113kts
06-Mar-18 17:34 44.476089 -123.741486 12 7581ft 113kts
06-Mar-18 17:35 44.505881 -123.727284 12 7593ft 113kts
06-Mar-18 17:36 44.532458 -123.714590 12 7606ft 113kts
06-Mar-18 17:37 44.562142 -123.700403 12 7617ft 113kts
06-Mar-18 17:38 44.591999 -123.686112 12 7629ft 113kts
06-Mar-18 17:39 44.620861 -123.672280 12 7641ft 113kts
06-Mar-18 17:40 44.650619 -123.658002 12 7654ft 114kts
06-Mar-18 17:41 44.680548 -123.643626 12 7667ft 114kts
06-Mar-18 17:42 44.710409 -123.629268 12 7679ft 114kts
06-Mar-18 17:43 44.740421 -123.614821 12 7691ft 114kts
06-Mar-18 17:44 44.771695 -123.599754 12 7540ft 119kts
06-Mar-18 17:45 44.802585 -123.584834 12 7539ft 116kts
06-Mar-18 17:46 44.832551 -123.570350 12 7536ft 112kts
06-Mar-18 17:47 44.861781 -123.556211 12 7533ft 111kts
06-Mar-18 17:48 44.890955 -123.542092 12 7530ft 110kts
06-Mar-18 17:49 44.920095 -123.527973 12 7527ft 110kts
06-Mar-18 17:50 44.949179 -123.513870 12 7526ft 111kts
06-Mar-18 17:51 44.978538 -123.499623 12 7525ft 111kts
06-Mar-18 17:52 45.007820 -123.485276 13 7527ft 112kts
06-Mar-18 17:53 45.037052 -123.470229 14 7529ft 112kts
06-Mar-18 17:54 45.066435 -123.455009 14 7530ft 113kts
06-Mar-18 17:55 45.095035 -123.440157 15 7532ft 113kts
06-Mar-18 17:56 45.124294 -123.424942 15 7535ft 114kts
06-Mar-18 17:57 45.153965 -123.409480 15 7537ft 114kts
06-Mar-18 17:58 45.183714 -123.393969 15 7538ft 114kts
06-Mar-18 17:59 45.213471 -123.378438 15 7541ft 114kts
06-Mar-18 18:00 45.243256 -123.362875 15 7542ft 114kts
06-Mar-18 18:01 45.272303 -123.347681 16 7542ft 114kts
06-Mar-18 18:02 45.301971 -123.332145 16 7541ft 114kts
06-Mar-18 18:03 45.331370 -123.315566 18 7541ft 114kts
06-Mar-18 18:04 45.360849 -123.299445 16 7543ft 114kts
06-Mar-18 18:05 45.390610 -123.283612 16 7543ft 114kts
06-Mar-18 18:06 45.420193 -123.267992 16 7544ft 114kts
06-Mar-18 18:07 45.449731 -123.252419 16 7544ft 113kts
06-Mar-18 18:08 45.479227 -123.236866 16 7547ft 113kts
06-Mar-18 18:09 45.508645 -123.221339 16 7548ft 113kts
06-Mar-18 18:10 45.538208 -123.205727 16 7551ft 113kts
06-Mar-18 18:11 45.567770 -123.190101 16 7552ft 113kts
06-Mar-18 18:12 45.597343 -123.174432 16 7551ft 113kts
06-Mar-18 18:13 45.626860 -123.158775 16 7554ft 114kts
06-Mar-18 18:14 45.656600 -123.143006 16 7552ft 114kts
06-Mar-18 18:15 45.686240 -123.127252 16 7555ft 114kts
06-Mar-18 18:16 45.715942 -123.111453 16 7557ft 114kts
06-Mar-18 18:17 45.745839 -123.095533 16 7559ft 115kts
06-Mar-18 18:18 45.775763 -123.079584 15 7561ft 115kts
06-Mar-18 18:19 45.805621 -123.063015 29 7555ft 118kts
06-Mar-18 18:20 45.833131 -123.038110 27 7565ft 117kts
06-Mar-18 18:21 45.860550 -123.013335 27 7567ft 116kts
06-Mar-18 18:22 45.887854 -122.988688 27 7566ft 116kts
06-Mar-18 18:23 45.915415 -122.963841 27 7546ft 117kts
06-Mar-18 18:24 45.942923 -122.939055 27 7547ft 117kts
06-Mar-18 18:25 45.970483 -122.914649 23 7573ft 115kts
06-Mar-18 18:26 45.998949 -122.892873 26 7533ft 117kts
06-Mar-18 18:27 46.026648 -122.869746 23 7534ft 116kts
06-Mar-18 18:28 46.054932 -122.846950 23 7463ft 119kts
06-Mar-18 18:29 46.082777 -122.824683 23 7455ft 115kts
06-Mar-18 18:30 46.102626 -122.808863 23 7461ft 114kts
06-Mar-18 18:31 46.104888 -122.807062 23 7456ft 115kts
06-Mar-18 18:32 46.132872 -122.784790 22 7460ft 115kts
06-Mar-18 18:33 46.160383 -122.762830 23 7474ft 113kts
06-Mar-18 18:34 46.188065 -122.740718 23 7487ft 115kts
06-Mar-18 18:35 46.215912 -122.717982 23 7486ft 115kts
06-Mar-18 18:36 46.243799 -122.695416 23 7486ft 115kts
06-Mar-18 18:37 46.271780 -122.672900 23 7487ft 116kts
06-Mar-18 18:38 46.299681 -122.650469 23 7486ft 115kts
06-Mar-18 18:39 46.327582 -122.628033 23 7487ft 115kts
06-Mar-18 18:40 46.355582 -122.605490 23 7487ft 116kts
06-Mar-18 18:41 46.383610 -122.582897 23 7486ft 116kts
06-Mar-18 18:42 46.411509 -122.560384 23 7492ft 114kts
06-Mar-18 18:43 46.439498 -122.537775 23 7496ft 115kts
06-Mar-18 18:44 46.467337 -122.515257 23 7504ft 115kts
06-Mar-18 18:45 46.495113 -122.492765 23 7513ft 115kts
06-Mar-18 18:46 46.523049 -122.470114 23 7522ft 115kts
06-Mar-18 18:47 46.550904 -122.447502 23 7533ft 116kts
06-Mar-18 18:48 46.578840 -122.424796 24 7538ft 116kts
06-Mar-18 18:49 46.606098 -122.402617 24 7539ft 116kts
06-Mar-18 18:50 46.634218 -122.379703 24 7538ft 116kts
06-Mar-18 18:51 46.662375 -122.356730 24 7536ft 116kts
06-Mar-18 18:52 46.689954 -122.334200 25 7533ft 116kts
06-Mar-18 18:53 46.718334 -122.311011 26 7532ft 119kts
06-Mar-18 18:54 46.747240 -122.287350 26 7495ft 122kts
06-Mar-18 18:55 46.776582 -122.263288 26 7486ft 120kts
06-Mar-18 18:56 46.806908 -122.246513 359 7241ft 124kts
06-Mar-18 18:57 46.843097 -122.243729 359 6466ft 134kts
06-Mar-18 18:58 46.883050 -122.241554 1 4978ft 152kts
06-Mar-18 18:59 46.922878 -122.239674 1 3970ft 135kts
06-Mar-18 19:00 46.959688 -122.237989 1 3271ft 133kts
06-Mar-18 19:01 46.995627 -122.236359 1 2824ft 119kts
06-Mar-18 19:02 47.027284 -122.234936 1 2781ft 113kts
06-Mar-18 19:03 47.058436 -122.233827 0 2780ft 112kts
06-Mar-18 19:04 47.090370 -122.232689 1 2781ft 118kts
06-Mar-18 19:05 47.121948 -122.231282 1 2781ft 118kts
06-Mar-18 19:06 47.153743 -122.229835 1 2781ft 118kts
06-Mar-18 19:07 47.186298 -122.228348 1 2781ft 118kts
06-Mar-18 19:08 47.218686 -122.226864 1 2782ft 118kts
06-Mar-18 19:09 47.250956 -122.225179 5 2783ft 117kts
06-Mar-18 19:10 47.283345 -122.217803 6 2610ft 123kts
06-Mar-18 19:11 47.316368 -122.209777 6 2321ft 123kts
06-Mar-18 19:12 47.349759 -122.200759 6 2026ft 123kts
06-Mar-18 19:13 47.382726 -122.194005 350 1725ft 117kts
06-Mar-18 19:14 47.413779 -122.201506 331 1342ft 116kts
06-Mar-18 19:15 47.438869 -122.223180 326 1113ft 113kts
06-Mar-18 19:16 47.465002 -122.245432 326 1032ft 101kts
06-Mar-18 19:17 47.490067 -122.265914 328 950ft 105kts
06-Mar-18 19:18 47.509724 -122.283000 329 713ft 68kts
06-Mar-18 19:19 47.523925 -122.295500 329 315ft 54kts
06-Mar-18 19:20 47.533696 -122.303598 16 24ft 10kts
06-Mar-18 19:21 47.535071 -122.303710 330 24ft 12kts
06-Mar-18 19:22 47.538819 -122.306825 28 24ft 10kts
06-Mar-18 19:23 47.539223 -122.306804 140 24ft 0kts
06-Mar-18 19:24 47.539223 -122.306804 140 24ft 0kts
06-Mar-18 19:25 47.539223 -122.306804 140 24ft 0kts
06-Mar-18 19:26 47.539223 -122.306804 140 24ft 0kts
06-Mar-18 19:27 47.539223 -122.306804 140 24ft 0kts
06-Mar-18 19:30 47.539222 -122.306804 140 24ft 0kts
06-Mar-18 19:31 47.535209 -122.303868 149 24ft 29kts
06-Mar-18 19:32 47.530835 -122.300706 207 24ft 4kts
06-Mar-18 19:33 47.529452 -122.299430 237 24ft 0kts
06-Mar-18 19:34 47.531501 -122.301978 330 33ft 58kts
06-Mar-18 19:35 47.545777 -122.303444 64 801ft 73kts

Navigation Log

Ident Type
Flight plan parsing failed, navigation log unavailable